Aviation Digital Data Service (ADDS)

Output produced by METARs form (1622 UTC 22 June 2017)
found at http://aviationweather.gov/adds/metars/
 
KMPV 221126Z 2212/2312 29004KT P6SM FEW150 
     FM222300 22005KT P6SM SCT130 
     FM230200 21005KT P6SM VCSH BKN090 
     FM230500 14004KT P6SM -SHRA OVC060